sensor_id;sensor_type;location;lat;lon;timestamp;P1;durP1;ratioP1;P2;durP2;ratioP2
19436;SDS011;9854;50.968;4.168;2022-11-20T00:01:12;41.80;;;31.30;;
19436;SDS011;9854;50.968;4.168;2022-11-20T00:03:39;41.33;;;31.13;;
19436;SDS011;9854;50.968;4.168;2022-11-20T00:06:06;42.43;;;31.53;;
19436;SDS011;9854;50.968;4.168;2022-11-20T00:08:34;40.10;;;31.73;;
19436;SDS011;9854;50.968;4.168;2022-11-20T00:11:07;40.17;;;31.80;;
19436;SDS011;9854;50.968;4.168;2022-11-20T00:13:34;42.37;;;31.80;;
19436;SDS011;9854;50.968;4.168;2022-11-20T00:16:00;41.27;;;31.83;;
19436;SDS011;9854;50.968;4.168;2022-11-20T00:18:28;42.63;;;31.90;;
19436;SDS011;9854;50.968;4.168;2022-11-20T00:20:59;44.60;;;32.67;;
19436;SDS011;9854;50.968;4.168;2022-11-20T00:23:26;47.30;;;35.03;;
19436;SDS011;9854;50.968;4.168;2022-11-20T00:25:51;48.10;;;34.33;;
19436;SDS011;9854;50.968;4.168;2022-11-20T00:28:17;46.00;;;34.53;;
19436;SDS011;9854;50.968;4.168;2022-11-20T00:30:42;49.77;;;35.40;;
19436;SDS011;9854;50.968;4.168;2022-11-20T00:33:08;49.47;;;36.20;;
19436;SDS011;9854;50.968;4.168;2022-11-20T00:35:34;46.50;;;34.70;;
19436;SDS011;9854;50.968;4.168;2022-11-20T00:37:59;56.83;;;36.63;;
19436;SDS011;9854;50.968;4.168;2022-11-20T00:40:25;49.73;;;35.30;;
19436;SDS011;9854;50.968;4.168;2022-11-20T00:42:50;51.17;;;35.80;;
19436;SDS011;9854;50.968;4.168;2022-11-20T00:45:16;55.80;;;35.63;;
19436;SDS011;9854;50.968;4.168;2022-11-20T00:47:41;56.83;;;37.03;;
19436;SDS011;9854;50.968;4.168;2022-11-20T00:50:07;60.60;;;39.07;;
19436;SDS011;9854;50.968;4.168;2022-11-20T00:52:33;56.47;;;38.87;;
19436;SDS011;9854;50.968;4.168;2022-11-20T00:54:59;55.60;;;38.37;;
19436;SDS011;9854;50.968;4.168;2022-11-20T00:57:24;51.73;;;37.10;;
19436;SDS011;9854;50.968;4.168;2022-11-20T00:59:50;52.83;;;36.93;;
19436;SDS011;9854;50.968;4.168;2022-11-20T01:02:15;61.70;;;39.00;;
19436;SDS011;9854;50.968;4.168;2022-11-20T01:04:41;58.47;;;38.53;;
19436;SDS011;9854;50.968;4.168;2022-11-20T01:07:07;53.87;;;36.43;;
19436;SDS011;9854;50.968;4.168;2022-11-20T01:09:33;55.53;;;38.37;;
19436;SDS011;9854;50.968;4.168;2022-11-20T01:11:59;57.43;;;37.37;;
19436;SDS011;9854;50.968;4.168;2022-11-20T01:14:25;50.60;;;36.00;;
19436;SDS011;9854;50.968;4.168;2022-11-20T01:16:51;52.10;;;37.13;;
19436;SDS011;9854;50.968;4.168;2022-11-20T01:19:18;59.80;;;38.07;;
19436;SDS011;9854;50.968;4.168;2022-11-20T01:21:45;58.70;;;37.97;;
19436;SDS011;9854;50.968;4.168;2022-11-20T01:24:14;49.50;;;36.17;;
19436;SDS011;9854;50.968;4.168;2022-11-20T01:26:43;54.77;;;37.13;;
19436;SDS011;9854;50.968;4.168;2022-11-20T01:29:13;51.97;;;37.53;;
19436;SDS011;9854;50.968;4.168;2022-11-20T01:31:41;50.50;;;36.63;;
19436;SDS011;9854;50.968;4.168;2022-11-20T01:34:12;54.00;;;36.90;;
19436;SDS011;9854;50.968;4.168;2022-11-20T01:36:40;53.97;;;37.57;;
19436;SDS011;9854;50.968;4.168;2022-11-20T01:39:13;53.10;;;37.07;;
19436;SDS011;9854;50.968;4.168;2022-11-20T01:41:41;56.37;;;39.03;;
19436;SDS011;9854;50.968;4.168;2022-11-20T01:47:11;55.17;;;40.00;;
19436;SDS011;9854;50.968;4.168;2022-11-20T01:49:42;64.00;;;41.00;;
19436;SDS011;9854;50.968;4.168;2022-11-20T01:52:20;61.20;;;41.33;;
19436;SDS011;9854;50.968;4.168;2022-11-20T01:55:06;59.37;;;41.03;;
19436;SDS011;9854;50.968;4.168;2022-11-20T01:57:36;62.10;;;41.87;;
19436;SDS011;9854;50.968;4.168;2022-11-20T02:00:05;65.77;;;42.63;;
19436;SDS011;9854;50.968;4.168;2022-11-20T02:02:36;65.90;;;43.47;;
19436;SDS011;9854;50.968;4.168;2022-11-20T02:05:10;69.73;;;42.73;;
19436;SDS011;9854;50.968;4.168;2022-11-20T02:07:58;74.23;;;44.33;;
19436;SDS011;9854;50.968;4.168;2022-11-20T02:10:25;66.93;;;43.00;;
19436;SDS011;9854;50.968;4.168;2022-11-20T02:12:51;64.77;;;42.93;;
19436;SDS011;9854;50.968;4.168;2022-11-20T02:15:36;73.83;;;44.80;;
19436;SDS011;9854;50.968;4.168;2022-11-20T02:18:02;65.27;;;44.00;;
19436;SDS011;9854;50.968;4.168;2022-11-20T02:20:28;69.27;;;44.57;;
19436;SDS011;9854;50.968;4.168;2022-11-20T02:25:23;70.67;;;43.57;;
19436;SDS011;9854;50.968;4.168;2022-11-20T02:27:51;68.53;;;44.23;;
19436;SDS011;9854;50.968;4.168;2022-11-20T02:30:17;68.20;;;44.97;;
19436;SDS011;9854;50.968;4.168;2022-11-20T02:32:42;70.93;;;45.80;;
19436;SDS011;9854;50.968;4.168;2022-11-20T02:37:43;71.93;;;44.77;;
19436;SDS011;9854;50.968;4.168;2022-11-20T02:40:09;70.20;;;45.50;;
19436;SDS011;9854;50.968;4.168;2022-11-20T02:42:36;70.27;;;44.20;;
19436;SDS011;9854;50.968;4.168;2022-11-20T02:45:03;71.27;;;43.37;;
19436;SDS011;9854;50.968;4.168;2022-11-20T02:47:29;71.60;;;45.17;;
19436;SDS011;9854;50.968;4.168;2022-11-20T02:49:55;74.80;;;43.57;;
19436;SDS011;9854;50.968;4.168;2022-11-20T02:52:21;77.40;;;46.73;;
19436;SDS011;9854;50.968;4.168;2022-11-20T02:54:46;82.20;;;48.60;;
19436;SDS011;9854;50.968;4.168;2022-11-20T02:57:12;78.57;;;47.27;;
19436;SDS011;9854;50.968;4.168;2022-11-20T02:59:38;80.40;;;48.73;;
19436;SDS011;9854;50.968;4.168;2022-11-20T03:02:03;81.03;;;48.10;;
19436;SDS011;9854;50.968;4.168;2022-11-20T03:04:29;85.97;;;49.03;;
19436;SDS011;9854;50.968;4.168;2022-11-20T03:06:55;71.60;;;44.77;;
19436;SDS011;9854;50.968;4.168;2022-11-20T03:09:21;83.73;;;47.83;;
19436;SDS011;9854;50.968;4.168;2022-11-20T03:11:47;85.20;;;49.33;;
19436;SDS011;9854;50.968;4.168;2022-11-20T03:14:12;82.70;;;47.57;;
19436;SDS011;9854;50.968;4.168;2022-11-20T03:16:38;73.07;;;45.37;;
19436;SDS011;9854;50.968;4.168;2022-11-20T03:19:04;75.30;;;45.43;;
19436;SDS011;9854;50.968;4.168;2022-11-20T03:21:29;64.33;;;42.47;;
19436;SDS011;9854;50.968;4.168;2022-11-20T03:23:57;77.77;;;45.87;;
19436;SDS011;9854;50.968;4.168;2022-11-20T03:26:24;76.00;;;46.47;;
19436;SDS011;9854;50.968;4.168;2022-11-20T03:28:57;85.70;;;47.10;;
19436;SDS011;9854;50.968;4.168;2022-11-20T03:31:24;81.10;;;46.30;;
19436;SDS011;9854;50.968;4.168;2022-11-20T03:33:56;83.57;;;48.43;;
19436;SDS011;9854;50.968;4.168;2022-11-20T03:36:22;80.00;;;46.33;;
19436;SDS011;9854;50.968;4.168;2022-11-20T03:38:48;88.57;;;48.60;;
19436;SDS011;9854;50.968;4.168;2022-11-20T03:41:15;85.83;;;46.97;;
19436;SDS011;9854;50.968;4.168;2022-11-20T03:43:51;93.77;;;49.87;;
19436;SDS011;9854;50.968;4.168;2022-11-20T03:46:18;92.20;;;50.83;;
19436;SDS011;9854;50.968;4.168;2022-11-20T03:48:44;98.17;;;50.27;;
19436;SDS011;9854;50.968;4.168;2022-11-20T03:51:14;95.53;;;50.27;;
19436;SDS011;9854;50.968;4.168;2022-11-20T03:53:41;99.10;;;49.87;;
19436;SDS011;9854;50.968;4.168;2022-11-20T03:56:08;87.97;;;48.23;;
19436;SDS011;9854;50.968;4.168;2022-11-20T03:58:35;85.87;;;48.13;;
19436;SDS011;9854;50.968;4.168;2022-11-20T04:03:34;94.80;;;49.10;;
19436;SDS011;9854;50.968;4.168;2022-11-20T04:06:06;101.60;;;50.03;;
19436;SDS011;9854;50.968;4.168;2022-11-20T04:08:33;95.17;;;50.60;;
19436;SDS011;9854;50.968;4.168;2022-11-20T04:13:49;101.30;;;52.20;;
19436;SDS011;9854;50.968;4.168;2022-11-20T04:16:19;94.03;;;51.60;;
19436;SDS011;9854;50.968;4.168;2022-11-20T04:18:46;99.70;;;54.10;;
19436;SDS011;9854;50.968;4.168;2022-11-20T04:21:12;97.30;;;50.73;;
19436;SDS011;9854;50.968;4.168;2022-11-20T04:23:38;94.47;;;51.30;;
19436;SDS011;9854;50.968;4.168;2022-11-20T04:26:07;91.20;;;49.67;;
19436;SDS011;9854;50.968;4.168;2022-11-20T04:28:36;86.53;;;47.93;;
19436;SDS011;9854;50.968;4.168;2022-11-20T04:31:06;80.88;;;47.90;;
19436;SDS011;9854;50.968;4.168;2022-11-20T04:33:34;85.30;;;47.27;;
19436;SDS011;9854;50.968;4.168;2022-11-20T04:36:01;84.57;;;47.03;;
19436;SDS011;9854;50.968;4.168;2022-11-20T04:38:38;73.53;;;44.30;;
19436;SDS011;9854;50.968;4.168;2022-11-20T04:41:05;77.57;;;44.70;;
19436;SDS011;9854;50.968;4.168;2022-11-20T04:43:32;82.17;;;44.77;;
19436;SDS011;9854;50.968;4.168;2022-11-20T04:45:59;76.80;;;43.93;;
19436;SDS011;9854;50.968;4.168;2022-11-20T04:48:26;71.50;;;44.37;;
19436;SDS011;9854;50.968;4.168;2022-11-20T04:50:53;78.57;;;45.27;;
19436;SDS011;9854;50.968;4.168;2022-11-20T04:53:19;76.73;;;44.70;;
19436;SDS011;9854;50.968;4.168;2022-11-20T04:55:46;74.77;;;43.53;;
19436;SDS011;9854;50.968;4.168;2022-11-20T04:58:12;71.73;;;43.13;;
19436;SDS011;9854;50.968;4.168;2022-11-20T05:00:38;75.73;;;44.57;;
19436;SDS011;9854;50.968;4.168;2022-11-20T05:03:04;86.57;;;45.30;;
19436;SDS011;9854;50.968;4.168;2022-11-20T05:05:30;79.73;;;44.87;;
19436;SDS011;9854;50.968;4.168;2022-11-20T05:07:56;74.13;;;44.33;;
19436;SDS011;9854;50.968;4.168;2022-11-20T05:10:23;77.47;;;45.07;;
19436;SDS011;9854;50.968;4.168;2022-11-20T05:12:52;74.13;;;44.37;;
19436;SDS011;9854;50.968;4.168;2022-11-20T05:15:18;76.63;;;45.43;;
19436;SDS011;9854;50.968;4.168;2022-11-20T05:17:50;89.37;;;45.40;;
19436;SDS011;9854;50.968;4.168;2022-11-20T05:20:17;80.20;;;44.53;;
19436;SDS011;9854;50.968;4.168;2022-11-20T05:22:44;76.40;;;44.00;;
19436;SDS011;9854;50.968;4.168;2022-11-20T05:25:09;76.47;;;43.60;;
19436;SDS011;9854;50.968;4.168;2022-11-20T05:27:35;81.33;;;45.77;;
19436;SDS011;9854;50.968;4.168;2022-11-20T05:30:02;90.07;;;46.47;;
19436;SDS011;9854;50.968;4.168;2022-11-20T05:32:31;84.70;;;47.27;;
19436;SDS011;9854;50.968;4.168;2022-11-20T05:34:56;84.87;;;44.23;;
19436;SDS011;9854;50.968;4.168;2022-11-20T05:37:22;83.40;;;46.77;;
19436;SDS011;9854;50.968;4.168;2022-11-20T05:39:47;89.10;;;47.67;;
19436;SDS011;9854;50.968;4.168;2022-11-20T05:42:13;89.60;;;47.90;;
19436;SDS011;9854;50.968;4.168;2022-11-20T05:44:58;96.07;;;48.53;;
19436;SDS011;9854;50.968;4.168;2022-11-20T05:47:31;87.00;;;45.80;;
19436;SDS011;9854;50.968;4.168;2022-11-20T05:49:58;85.77;;;46.53;;
19436;SDS011;9854;50.968;4.168;2022-11-20T05:52:23;98.03;;;48.07;;
19436;SDS011;9854;50.968;4.168;2022-11-20T05:54:49;89.57;;;47.23;;
19436;SDS011;9854;50.968;4.168;2022-11-20T05:57:15;88.30;;;47.43;;
19436;SDS011;9854;50.968;4.168;2022-11-20T05:59:41;98.53;;;48.13;;
19436;SDS011;9854;50.968;4.168;2022-11-20T06:02:07;112.60;;;51.73;;
19436;SDS011;9854;50.968;4.168;2022-11-20T06:04:33;121.07;;;53.30;;
19436;SDS011;9854;50.968;4.168;2022-11-20T06:06:58;115.83;;;53.23;;
19436;SDS011;9854;50.968;4.168;2022-11-20T06:09:24;117.47;;;52.50;;
19436;SDS011;9854;50.968;4.168;2022-11-20T06:11:49;123.93;;;54.53;;
19436;SDS011;9854;50.968;4.168;2022-11-20T06:14:15;133.37;;;56.17;;
19436;SDS011;9854;50.968;4.168;2022-11-20T06:16:40;127.37;;;55.83;;
19436;SDS011;9854;50.968;4.168;2022-11-20T06:19:06;139.53;;;56.43;;
19436;SDS011;9854;50.968;4.168;2022-11-20T06:21:31;126.23;;;56.53;;
19436;SDS011;9854;50.968;4.168;2022-11-20T06:23:57;141.17;;;56.07;;
19436;SDS011;9854;50.968;4.168;2022-11-20T06:26:24;143.40;;;56.50;;
19436;SDS011;9854;50.968;4.168;2022-11-20T06:28:51;119.90;;;54.00;;
19436;SDS011;9854;50.968;4.168;2022-11-20T06:31:18;138.77;;;56.83;;
19436;SDS011;9854;50.968;4.168;2022-11-20T06:33:45;133.70;;;55.40;;
19436;SDS011;9854;50.968;4.168;2022-11-20T06:36:12;136.43;;;55.17;;
19436;SDS011;9854;50.968;4.168;2022-11-20T06:38:39;138.27;;;55.97;;
19436;SDS011;9854;50.968;4.168;2022-11-20T06:41:06;138.10;;;56.67;;
19436;SDS011;9854;50.968;4.168;2022-11-20T06:43:32;129.03;;;55.87;;
19436;SDS011;9854;50.968;4.168;2022-11-20T06:45:58;127.77;;;54.63;;
19436;SDS011;9854;50.968;4.168;2022-11-20T06:48:25;129.43;;;54.27;;
19436;SDS011;9854;50.968;4.168;2022-11-20T06:50:52;133.70;;;55.57;;
19436;SDS011;9854;50.968;4.168;2022-11-20T06:53:17;122.53;;;53.37;;
19436;SDS011;9854;50.968;4.168;2022-11-20T06:55:43;128.93;;;55.27;;
19436;SDS011;9854;50.968;4.168;2022-11-20T06:58:13;137.40;;;55.87;;
19436;SDS011;9854;50.968;4.168;2022-11-20T07:00:40;128.97;;;55.83;;
19436;SDS011;9854;50.968;4.168;2022-11-20T07:03:07;128.27;;;56.47;;
19436;SDS011;9854;50.968;4.168;2022-11-20T07:05:34;133.50;;;55.80;;
19436;SDS011;9854;50.968;4.168;2022-11-20T07:08:00;129.57;;;54.17;;
19436;SDS011;9854;50.968;4.168;2022-11-20T07:10:26;141.03;;;57.33;;
19436;SDS011;9854;50.968;4.168;2022-11-20T07:12:52;142.20;;;58.43;;
19436;SDS011;9854;50.968;4.168;2022-11-20T07:15:20;134.23;;;55.67;;
19436;SDS011;9854;50.968;4.168;2022-11-20T07:17:46;129.83;;;52.87;;
19436;SDS011;9854;50.968;4.168;2022-11-20T07:20:12;129.40;;;54.93;;
19436;SDS011;9854;50.968;4.168;2022-11-20T07:22:38;137.43;;;56.37;;
19436;SDS011;9854;50.968;4.168;2022-11-20T07:25:04;132.77;;;56.23;;
19436;SDS011;9854;50.968;4.168;2022-11-20T07:27:30;139.13;;;56.87;;
19436;SDS011;9854;50.968;4.168;2022-11-20T07:29:56;138.97;;;56.10;;
19436;SDS011;9854;50.968;4.168;2022-11-20T07:32:22;127.43;;;53.33;;
19436;SDS011;9854;50.968;4.168;2022-11-20T07:34:48;117.47;;;52.17;;
19436;SDS011;9854;50.968;4.168;2022-11-20T07:37:14;129.30;;;53.60;;
19436;SDS011;9854;50.968;4.168;2022-11-20T07:39:39;117.03;;;50.50;;
19436;SDS011;9854;50.968;4.168;2022-11-20T07:42:05;110.37;;;50.90;;
19436;SDS011;9854;50.968;4.168;2022-11-20T07:44:32;120.63;;;52.70;;
19436;SDS011;9854;50.968;4.168;2022-11-20T07:46:57;124.80;;;52.13;;
19436;SDS011;9854;50.968;4.168;2022-11-20T07:49:23;122.23;;;52.73;;
19436;SDS011;9854;50.968;4.168;2022-11-20T07:51:52;112.63;;;49.90;;
19436;SDS011;9854;50.968;4.168;2022-11-20T07:54:18;120.50;;;51.90;;
19436;SDS011;9854;50.968;4.168;2022-11-20T07:56:45;107.53;;;51.63;;
19436;SDS011;9854;50.968;4.168;2022-11-20T07:59:11;96.00;;;47.57;;
19436;SDS011;9854;50.968;4.168;2022-11-20T08:01:37;98.87;;;47.60;;
19436;SDS011;9854;50.968;4.168;2022-11-20T08:04:03;97.83;;;46.63;;
19436;SDS011;9854;50.968;4.168;2022-11-20T08:06:29;98.80;;;47.00;;
19436;SDS011;9854;50.968;4.168;2022-11-20T08:08:55;95.57;;;45.83;;
19436;SDS011;9854;50.968;4.168;2022-11-20T08:11:20;96.03;;;44.37;;
19436;SDS011;9854;50.968;4.168;2022-11-20T08:14:04;107.35;;;48.47;;
19436;SDS011;9854;50.968;4.168;2022-11-20T08:16:39;103.97;;;44.93;;
19436;SDS011;9854;50.968;4.168;2022-11-20T08:19:06;114.27;;;47.53;;
19436;SDS011;9854;50.968;4.168;2022-11-20T08:21:32;114.90;;;47.50;;
19436;SDS011;9854;50.968;4.168;2022-11-20T08:23:58;124.68;;;51.60;;
19436;SDS011;9854;50.968;4.168;2022-11-20T08:26:24;131.87;;;52.67;;
19436;SDS011;9854;50.968;4.168;2022-11-20T08:28:54;119.80;;;53.27;;
19436;SDS011;9854;50.968;4.168;2022-11-20T08:31:20;112.90;;;47.87;;
19436;SDS011;9854;50.968;4.168;2022-11-20T08:33:46;119.43;;;53.07;;
19436;SDS011;9854;50.968;4.168;2022-11-20T08:36:12;118.70;;;49.57;;
19436;SDS011;9854;50.968;4.168;2022-11-20T08:38:38;119.23;;;51.20;;
19436;SDS011;9854;50.968;4.168;2022-11-20T08:41:04;126.27;;;53.33;;
19436;SDS011;9854;50.968;4.168;2022-11-20T08:43:49;125.83;;;54.53;;
19436;SDS011;9854;50.968;4.168;2022-11-20T08:46:15;136.67;;;61.97;;
19436;SDS011;9854;50.968;4.168;2022-11-20T08:48:42;111.23;;;47.27;;
19436;SDS011;9854;50.968;4.168;2022-11-20T08:51:08;113.37;;;46.53;;
19436;SDS011;9854;50.968;4.168;2022-11-20T08:53:34;127.20;;;47.40;;
19436;SDS011;9854;50.968;4.168;2022-11-20T08:55:59;116.47;;;47.90;;
19436;SDS011;9854;50.968;4.168;2022-11-20T08:58:25;108.93;;;44.30;;
19436;SDS011;9854;50.968;4.168;2022-11-20T09:00:51;112.87;;;44.73;;
19436;SDS011;9854;50.968;4.168;2022-11-20T09:03:17;104.63;;;44.90;;
19436;SDS011;9854;50.968;4.168;2022-11-20T09:05:43;116.50;;;44.30;;
19436;SDS011;9854;50.968;4.168;2022-11-20T09:08:09;111.47;;;44.37;;
19436;SDS011;9854;50.968;4.168;2022-11-20T09:10:35;105.17;;;44.17;;
19436;SDS011;9854;50.968;4.168;2022-11-20T09:13:01;101.90;;;42.97;;
19436;SDS011;9854;50.968;4.168;2022-11-20T09:15:27;104.73;;;43.07;;
19436;SDS011;9854;50.968;4.168;2022-11-20T09:17:53;94.13;;;40.40;;
19436;SDS011;9854;50.968;4.168;2022-11-20T09:20:20;88.83;;;39.00;;
19436;SDS011;9854;50.968;4.168;2022-11-20T09:22:46;81.47;;;36.43;;
19436;SDS011;9854;50.968;4.168;2022-11-20T09:25:12;76.50;;;36.13;;
19436;SDS011;9854;50.968;4.168;2022-11-20T09:27:38;88.40;;;37.67;;
19436;SDS011;9854;50.968;4.168;2022-11-20T09:30:04;83.97;;;37.27;;
19436;SDS011;9854;50.968;4.168;2022-11-20T09:32:30;74.27;;;34.47;;
19436;SDS011;9854;50.968;4.168;2022-11-20T09:34:55;71.40;;;34.23;;
19436;SDS011;9854;50.968;4.168;2022-11-20T09:37:21;73.27;;;34.70;;
19436;SDS011;9854;50.968;4.168;2022-11-20T09:39:46;72.97;;;33.70;;
19436;SDS011;9854;50.968;4.168;2022-11-20T09:51:18;56.90;;;30.43;;
19436;SDS011;9854;50.968;4.168;2022-11-20T09:56:37;59.83;;;29.40;;
19436;SDS011;9854;50.968;4.168;2022-11-20T09:59:07;53.30;;;27.57;;
19436;SDS011;9854;50.968;4.168;2022-11-20T10:01:53;56.03;;;27.67;;
19436;SDS011;9854;50.968;4.168;2022-11-20T10:04:20;49.07;;;25.40;;
19436;SDS011;9854;50.968;4.168;2022-11-20T10:06:56;46.93;;;24.73;;
19436;SDS011;9854;50.968;4.168;2022-11-20T10:09:42;46.00;;;23.73;;
19436;SDS011;9854;50.968;4.168;2022-11-20T10:12:18;43.70;;;23.17;;
19436;SDS011;9854;50.968;4.168;2022-11-20T10:26:00;32.33;;;19.40;;
19436;SDS011;9854;50.968;4.168;2022-11-20T10:28:53;33.53;;;18.63;;
19436;SDS011;9854;50.968;4.168;2022-11-20T10:31:17;27.77;;;15.97;;
19436;SDS011;9854;50.968;4.168;2022-11-20T10:37:01;29.87;;;19.53;;
19436;SDS011;9854;50.968;4.168;2022-11-20T10:39:44;25.53;;;15.07;;
19436;SDS011;9854;50.968;4.168;2022-11-20T10:42:59;24.60;;;16.93;;
19436;SDS011;9854;50.968;4.168;2022-11-20T10:47:51;25.17;;;14.30;;
19436;SDS011;9854;50.968;4.168;2022-11-20T10:50:21;15.90;;;11.83;;
19436;SDS011;9854;50.968;4.168;2022-11-20T11:01:29;16.30;;;8.83;;
19436;SDS011;9854;50.968;4.168;2022-11-20T11:03:55;15.27;;;9.07;;
19436;SDS011;9854;50.968;4.168;2022-11-20T11:08:53;12.73;;;8.37;;
19436;SDS011;9854;50.968;4.168;2022-11-20T11:11:24;13.03;;;7.07;;
19436;SDS011;9854;50.968;4.168;2022-11-20T11:14:03;7.50;;;6.37;;
19436;SDS011;9854;50.968;4.168;2022-11-20T11:16:30;8.57;;;5.73;;
19436;SDS011;9854;50.968;4.168;2022-11-20T11:19:06;8.97;;;5.83;;
19436;SDS011;9854;50.968;4.168;2022-11-20T11:21:36;9.03;;;5.03;;
19436;SDS011;9854;50.968;4.168;2022-11-20T11:24:14;12.80;;;5.50;;
19436;SDS011;9854;50.968;4.168;2022-11-20T11:27:02;10.53;;;4.70;;
19436;SDS011;9854;50.968;4.168;2022-11-20T11:29:35;9.67;;;4.90;;
19436;SDS011;9854;50.968;4.168;2022-11-20T11:34:33;6.97;;;4.60;;
19436;SDS011;9854;50.968;4.168;2022-11-20T11:37:00;4.83;;;3.90;;
19436;SDS011;9854;50.968;4.168;2022-11-20T11:39:28;10.83;;;4.43;;
19436;SDS011;9854;50.968;4.168;2022-11-20T11:41:55;11.50;;;4.10;;
19436;SDS011;9854;50.968;4.168;2022-11-20T11:44:23;9.17;;;4.67;;
19436;SDS011;9854;50.968;4.168;2022-11-20T11:50:01;6.40;;;3.10;;
19436;SDS011;9854;50.968;4.168;2022-11-20T11:52:39;8.87;;;3.40;;
19436;SDS011;9854;50.968;4.168;2022-11-20T11:55:18;7.77;;;3.20;;
19436;SDS011;9854;50.968;4.168;2022-11-20T11:58:02;8.50;;;3.40;;
19436;SDS011;9854;50.968;4.168;2022-11-20T12:00:36;6.70;;;3.40;;
19436;SDS011;9854;50.968;4.168;2022-11-20T12:03:17;9.17;;;3.73;;
19436;SDS011;9854;50.968;4.168;2022-11-20T12:05:51;5.83;;;3.23;;
19436;SDS011;9854;50.968;4.168;2022-11-20T12:08:23;7.07;;;3.60;;
19436;SDS011;9854;50.968;4.168;2022-11-20T12:11:53;11.27;;;4.17;;
19436;SDS011;9854;50.968;4.168;2022-11-20T12:14:33;7.30;;;3.60;;
19436;SDS011;9854;50.968;4.168;2022-11-20T12:17:03;6.23;;;3.70;;
19436;SDS011;9854;50.968;4.168;2022-11-20T12:19:30;9.00;;;4.00;;
19436;SDS011;9854;50.968;4.168;2022-11-20T12:22:01;10.80;;;4.30;;
19436;SDS011;9854;50.968;4.168;2022-11-20T12:32:37;11.03;;;4.37;;
19436;SDS011;9854;50.968;4.168;2022-11-20T12:35:26;9.40;;;4.10;;
19436;SDS011;9854;50.968;4.168;2022-11-20T12:38:23;11.77;;;4.40;;
19436;SDS011;9854;50.968;4.168;2022-11-20T12:47:17;9.30;;;5.83;;
19436;SDS011;9854;50.968;4.168;2022-11-20T13:00:28;14.30;;;8.23;;
19436;SDS011;9854;50.968;4.168;2022-11-20T13:08:07;14.70;;;6.03;;
19436;SDS011;9854;50.968;4.168;2022-11-20T13:16:47;20.77;;;8.63;;
19436;SDS011;9854;50.968;4.168;2022-11-20T13:19:29;10.03;;;6.90;;
19436;SDS011;9854;50.968;4.168;2022-11-20T13:21:55;17.43;;;9.07;;
19436;SDS011;9854;50.968;4.168;2022-11-20T13:26:59;12.00;;;6.27;;
19436;SDS011;9854;50.968;4.168;2022-11-20T13:29:26;11.37;;;7.17;;
19436;SDS011;9854;50.968;4.168;2022-11-20T13:32:00;10.70;;;5.90;;
19436;SDS011;9854;50.968;4.168;2022-11-20T13:34:32;8.57;;;5.00;;
19436;SDS011;9854;50.968;4.168;2022-11-20T13:36:59;6.93;;;4.30;;
19436;SDS011;9854;50.968;4.168;2022-11-20T13:39:35;9.47;;;5.00;;
19436;SDS011;9854;50.968;4.168;2022-11-20T13:42:02;7.57;;;4.97;;
19436;SDS011;9854;50.968;4.168;2022-11-20T13:45:00;5.43;;;4.07;;
19436;SDS011;9854;50.968;4.168;2022-11-20T13:47:28;6.50;;;5.20;;
19436;SDS011;9854;50.968;4.168;2022-11-20T13:49:57;5.13;;;3.83;;
19436;SDS011;9854;50.968;4.168;2022-11-20T13:52:42;9.63;;;7.33;;
19436;SDS011;9854;50.968;4.168;2022-11-20T13:55:12;6.57;;;3.63;;
19436;SDS011;9854;50.968;4.168;2022-11-20T13:58:02;4.90;;;4.40;;
19436;SDS011;9854;50.968;4.168;2022-11-20T14:00:33;4.57;;;3.60;;
19436;SDS011;9854;50.968;4.168;2022-11-20T14:03:18;4.00;;;2.93;;
19436;SDS011;9854;50.968;4.168;2022-11-20T14:05:54;7.17;;;3.30;;
19436;SDS011;9854;50.968;4.168;2022-11-20T14:11:16;3.83;;;3.22;;
19436;SDS011;9854;50.968;4.168;2022-11-20T14:14:02;4.83;;;4.33;;
19436;SDS011;9854;50.968;4.168;2022-11-20T14:16:36;2.77;;;2.53;;
19436;SDS011;9854;50.968;4.168;2022-11-20T14:21:46;5.47;;;2.87;;
19436;SDS011;9854;50.968;4.168;2022-11-20T14:24:13;3.33;;;3.03;;
19436;SDS011;9854;50.968;4.168;2022-11-20T14:26:44;4.27;;;3.00;;
19436;SDS011;9854;50.968;4.168;2022-11-20T14:29:14;4.20;;;2.80;;
19436;SDS011;9854;50.968;4.168;2022-11-20T14:31:43;38.10;;;13.50;;
19436;SDS011;9854;50.968;4.168;2022-11-20T14:34:13;3.77;;;3.10;;
19436;SDS011;9854;50.968;4.168;2022-11-20T14:36:43;3.67;;;3.37;;
19436;SDS011;9854;50.968;4.168;2022-11-20T14:39:11;5.43;;;3.73;;
19436;SDS011;9854;50.968;4.168;2022-11-20T14:41:50;4.20;;;3.90;;
19436;SDS011;9854;50.968;4.168;2022-11-20T14:44:20;3.70;;;3.40;;
19436;SDS011;9854;50.968;4.168;2022-11-20T14:46:51;4.60;;;3.80;;
19436;SDS011;9854;50.968;4.168;2022-11-20T14:49:17;4.83;;;3.97;;
19436;SDS011;9854;50.968;4.168;2022-11-20T14:51:43;28.03;;;11.03;;
19436;SDS011;9854;50.968;4.168;2022-11-20T14:59:24;5.27;;;4.77;;
19436;SDS011;9854;50.968;4.168;2022-11-20T15:02:10;12.03;;;9.10;;
19436;SDS011;9854;50.968;4.168;2022-11-20T15:04:50;9.83;;;8.90;;
19436;SDS011;9854;50.968;4.168;2022-11-20T15:12:32;18.97;;;11.40;;
19436;SDS011;9854;50.968;4.168;2022-11-20T15:15:03;6.17;;;5.57;;
19436;SDS011;9854;50.968;4.168;2022-11-20T15:17:30;9.77;;;5.53;;
19436;SDS011;9854;50.968;4.168;2022-11-20T15:19:57;9.17;;;8.27;;
19436;SDS011;9854;50.968;4.168;2022-11-20T15:22:23;11.77;;;10.57;;
19436;SDS011;9854;50.968;4.168;2022-11-20T15:24:49;16.80;;;11.77;;
19436;SDS011;9854;50.968;4.168;2022-11-20T15:27:14;17.53;;;13.20;;
19436;SDS011;9854;50.968;4.168;2022-11-20T15:29:40;9.70;;;7.40;;
19436;SDS011;9854;50.968;4.168;2022-11-20T15:32:07;11.20;;;8.00;;
19436;SDS011;9854;50.968;4.168;2022-11-20T15:34:33;16.33;;;8.20;;
19436;SDS011;9854;50.968;4.168;2022-11-20T15:36:59;17.77;;;11.00;;
19436;SDS011;9854;50.968;4.168;2022-11-20T15:39:25;12.60;;;8.83;;
19436;SDS011;9854;50.968;4.168;2022-11-20T15:41:50;10.80;;;7.00;;
19436;SDS011;9854;50.968;4.168;2022-11-20T15:44:16;10.77;;;6.07;;
19436;SDS011;9854;50.968;4.168;2022-11-20T15:46:42;9.80;;;5.10;;
19436;SDS011;9854;50.968;4.168;2022-11-20T15:49:13;13.43;;;4.63;;
19436;SDS011;9854;50.968;4.168;2022-11-20T15:51:42;16.77;;;6.83;;
19436;SDS011;9854;50.968;4.168;2022-11-20T15:54:18;17.77;;;4.93;;
19436;SDS011;9854;50.968;4.168;2022-11-20T15:56:46;10.60;;;4.30;;
19436;SDS011;9854;50.968;4.168;2022-11-20T15:59:12;13.70;;;5.07;;
19436;SDS011;9854;50.968;4.168;2022-11-20T16:01:39;14.27;;;4.50;;
19436;SDS011;9854;50.968;4.168;2022-11-20T16:04:15;22.03;;;5.67;;
19436;SDS011;9854;50.968;4.168;2022-11-20T16:06:41;12.50;;;4.47;;
19436;SDS011;9854;50.968;4.168;2022-11-20T16:09:07;17.30;;;4.50;;
19436;SDS011;9854;50.968;4.168;2022-11-20T16:11:33;17.40;;;5.60;;
19436;SDS011;9854;50.968;4.168;2022-11-20T16:14:01;86.60;;;27.27;;
19436;SDS011;9854;50.968;4.168;2022-11-20T16:16:47;20.13;;;4.27;;
19436;SDS011;9854;50.968;4.168;2022-11-20T16:19:12;12.83;;;4.40;;
19436;SDS011;9854;50.968;4.168;2022-11-20T16:21:38;20.00;;;4.70;;
19436;SDS011;9854;50.968;4.168;2022-11-20T16:24:07;14.10;;;4.50;;
19436;SDS011;9854;50.968;4.168;2022-11-20T16:26:34;20.60;;;4.83;;
19436;SDS011;9854;50.968;4.168;2022-11-20T16:29:01;19.80;;;3.83;;
19436;SDS011;9854;50.968;4.168;2022-11-20T16:31:28;18.30;;;5.00;;
19436;SDS011;9854;50.968;4.168;2022-11-20T16:33:57;27.00;;;9.40;;
19436;SDS011;9854;50.968;4.168;2022-11-20T16:36:25;17.17;;;4.53;;
19436;SDS011;9854;50.968;4.168;2022-11-20T16:38:56;17.00;;;4.60;;
19436;SDS011;9854;50.968;4.168;2022-11-20T16:41:23;15.47;;;4.43;;
19436;SDS011;9854;50.968;4.168;2022-11-20T16:43:54;21.17;;;4.27;;